sensor_id;sensor_type;location;lat;lon;timestamp;P1;durP1;ratioP1;P2;durP2;ratioP2
3999;SDS011;2014;53.604;10.112;2023-03-01T00:02:13;18.43;;;11.40;;
3999;SDS011;2014;53.604;10.112;2023-03-01T00:04:42;17.30;;;10.13;;
3999;SDS011;2014;53.604;10.112;2023-03-01T00:07:10;27.00;;;10.37;;
3999;SDS011;2014;53.604;10.112;2023-03-01T00:09:38;21.50;;;11.13;;
3999;SDS011;2014;53.604;10.112;2023-03-01T00:12:06;17.53;;;11.60;;
3999;SDS011;2014;53.604;10.112;2023-03-01T00:14:33;20.60;;;10.00;;
3999;SDS011;2014;53.604;10.112;2023-03-01T00:17:01;22.13;;;12.23;;
3999;SDS011;2014;53.604;10.112;2023-03-01T00:19:28;20.13;;;11.50;;
3999;SDS011;2014;53.604;10.112;2023-03-01T00:21:59;14.93;;;11.00;;
3999;SDS011;2014;53.604;10.112;2023-03-01T00:24:27;17.13;;;12.67;;
3999;SDS011;2014;53.604;10.112;2023-03-01T00:26:54;17.37;;;12.77;;
3999;SDS011;2014;53.604;10.112;2023-03-01T00:29:22;20.13;;;11.40;;
3999;SDS011;2014;53.604;10.112;2023-03-01T00:31:50;18.60;;;11.60;;
3999;SDS011;2014;53.604;10.112;2023-03-01T00:34:18;19.60;;;11.70;;
3999;SDS011;2014;53.604;10.112;2023-03-01T00:36:46;17.67;;;10.70;;
3999;SDS011;2014;53.604;10.112;2023-03-01T00:39:15;20.23;;;12.10;;
3999;SDS011;2014;53.604;10.112;2023-03-01T00:41:43;18.27;;;12.40;;
3999;SDS011;2014;53.604;10.112;2023-03-01T00:44:10;16.93;;;12.93;;
3999;SDS011;2014;53.604;10.112;2023-03-01T00:46:38;23.20;;;12.73;;
3999;SDS011;2014;53.604;10.112;2023-03-01T00:49:06;11.30;;;9.73;;
3999;SDS011;2014;53.604;10.112;2023-03-01T00:51:34;22.77;;;12.27;;
3999;SDS011;2014;53.604;10.112;2023-03-01T00:54:02;16.97;;;12.13;;
3999;SDS011;2014;53.604;10.112;2023-03-01T00:56:31;17.60;;;10.93;;
3999;SDS011;2014;53.604;10.112;2023-03-01T00:58:59;14.70;;;11.27;;
3999;SDS011;2014;53.604;10.112;2023-03-01T01:01:28;18.67;;;11.63;;
3999;SDS011;2014;53.604;10.112;2023-03-01T01:03:56;17.70;;;11.20;;
3999;SDS011;2014;53.604;10.112;2023-03-01T01:06:25;28.00;;;11.30;;
3999;SDS011;2014;53.604;10.112;2023-03-01T01:08:53;16.60;;;10.57;;
3999;SDS011;2014;53.604;10.112;2023-03-01T01:11:22;20.53;;;12.23;;
3999;SDS011;2014;53.604;10.112;2023-03-01T01:13:52;25.80;;;11.70;;
3999;SDS011;2014;53.604;10.112;2023-03-01T01:16:21;18.43;;;10.37;;
3999;SDS011;2014;53.604;10.112;2023-03-01T01:18:49;20.57;;;10.57;;
3999;SDS011;2014;53.604;10.112;2023-03-01T01:21:18;19.53;;;11.93;;
3999;SDS011;2014;53.604;10.112;2023-03-01T01:23:46;18.70;;;11.80;;
3999;SDS011;2014;53.604;10.112;2023-03-01T01:26:15;11.97;;;9.93;;
3999;SDS011;2014;53.604;10.112;2023-03-01T01:28:43;11.20;;;9.57;;
3999;SDS011;2014;53.604;10.112;2023-03-01T01:31:12;14.30;;;10.80;;
3999;SDS011;2014;53.604;10.112;2023-03-01T01:33:40;21.70;;;11.10;;
3999;SDS011;2014;53.604;10.112;2023-03-01T01:36:08;23.20;;;10.80;;
3999;SDS011;2014;53.604;10.112;2023-03-01T01:38:36;20.67;;;11.90;;
3999;SDS011;2014;53.604;10.112;2023-03-01T01:41:05;16.17;;;11.10;;
3999;SDS011;2014;53.604;10.112;2023-03-01T01:43:33;15.33;;;10.90;;
3999;SDS011;2014;53.604;10.112;2023-03-01T01:46:03;12.50;;;9.77;;
3999;SDS011;2014;53.604;10.112;2023-03-01T01:48:35;20.40;;;10.47;;
3999;SDS011;2014;53.604;10.112;2023-03-01T01:51:07;13.20;;;9.93;;
3999;SDS011;2014;53.604;10.112;2023-03-01T01:53:37;21.83;;;10.27;;
3999;SDS011;2014;53.604;10.112;2023-03-01T01:56:05;15.93;;;11.70;;
3999;SDS011;2014;53.604;10.112;2023-03-01T01:58:34;14.63;;;10.83;;
3999;SDS011;2014;53.604;10.112;2023-03-01T02:01:03;14.07;;;10.60;;
3999;SDS011;2014;53.604;10.112;2023-03-01T02:03:32;15.27;;;10.80;;
3999;SDS011;2014;53.604;10.112;2023-03-01T02:06:05;14.40;;;9.80;;
3999;SDS011;2014;53.604;10.112;2023-03-01T02:08:35;11.20;;;9.00;;
3999;SDS011;2014;53.604;10.112;2023-03-01T02:11:03;15.33;;;9.40;;
3999;SDS011;2014;53.604;10.112;2023-03-01T02:13:31;11.90;;;10.07;;
3999;SDS011;2014;53.604;10.112;2023-03-01T02:16:02;18.90;;;10.83;;
3999;SDS011;2014;53.604;10.112;2023-03-01T02:18:30;12.80;;;9.33;;
3999;SDS011;2014;53.604;10.112;2023-03-01T02:21:05;17.20;;;9.63;;
3999;SDS011;2014;53.604;10.112;2023-03-01T02:23:35;17.50;;;9.57;;
3999;SDS011;2014;53.604;10.112;2023-03-01T02:26:05;13.70;;;10.00;;
3999;SDS011;2014;53.604;10.112;2023-03-01T02:28:38;11.80;;;8.83;;
3999;SDS011;2014;53.604;10.112;2023-03-01T02:31:07;11.63;;;9.07;;
3999;SDS011;2014;53.604;10.112;2023-03-01T02:33:52;15.30;;;9.30;;
3999;SDS011;2014;53.604;10.112;2023-03-01T02:36:20;13.83;;;8.13;;
3999;SDS011;2014;53.604;10.112;2023-03-01T02:38:50;12.20;;;8.53;;
3999;SDS011;2014;53.604;10.112;2023-03-01T02:41:18;15.20;;;8.47;;
3999;SDS011;2014;53.604;10.112;2023-03-01T02:43:48;13.17;;;9.00;;
3999;SDS011;2014;53.604;10.112;2023-03-01T02:46:17;11.03;;;7.73;;
3999;SDS011;2014;53.604;10.112;2023-03-01T02:48:47;16.47;;;8.90;;
3999;SDS011;2014;53.604;10.112;2023-03-01T02:51:32;10.80;;;8.67;;
3999;SDS011;2014;53.604;10.112;2023-03-01T02:54:07;9.53;;;8.63;;
3999;SDS011;2014;53.604;10.112;2023-03-01T02:56:35;13.17;;;8.57;;
3999;SDS011;2014;53.604;10.112;2023-03-01T02:59:04;12.80;;;9.23;;
3999;SDS011;2014;53.604;10.112;2023-03-01T03:01:32;10.03;;;8.10;;
3999;SDS011;2014;53.604;10.112;2023-03-01T03:04:03;11.00;;;8.73;;
3999;SDS011;2014;53.604;10.112;2023-03-01T03:06:31;16.90;;;9.50;;
3999;SDS011;2014;53.604;10.112;2023-03-01T03:08:59;18.50;;;9.77;;
3999;SDS011;2014;53.604;10.112;2023-03-01T03:11:27;14.93;;;9.10;;
3999;SDS011;2014;53.604;10.112;2023-03-01T03:13:55;16.70;;;10.20;;
3999;SDS011;2014;53.604;10.112;2023-03-01T03:16:24;9.97;;;8.00;;
3999;SDS011;2014;53.604;10.112;2023-03-01T03:18:52;10.33;;;9.23;;
3999;SDS011;2014;53.604;10.112;2023-03-01T03:21:20;11.83;;;8.97;;
3999;SDS011;2014;53.604;10.112;2023-03-01T03:23:47;10.80;;;7.00;;
3999;SDS011;2014;53.604;10.112;2023-03-01T03:26:15;11.13;;;8.40;;
3999;SDS011;2014;53.604;10.112;2023-03-01T03:28:42;9.63;;;8.47;;
3999;SDS011;2014;53.604;10.112;2023-03-01T03:31:11;10.80;;;8.20;;
3999;SDS011;2014;53.604;10.112;2023-03-01T03:33:41;14.33;;;9.03;;
3999;SDS011;2014;53.604;10.112;2023-03-01T03:36:09;11.03;;;8.10;;
3999;SDS011;2014;53.604;10.112;2023-03-01T03:38:38;10.97;;;8.80;;
3999;SDS011;2014;53.604;10.112;2023-03-01T03:41:06;20.53;;;8.77;;
3999;SDS011;2014;53.604;10.112;2023-03-01T03:43:35;10.67;;;7.97;;
3999;SDS011;2014;53.604;10.112;2023-03-01T03:46:03;9.30;;;8.23;;
3999;SDS011;2014;53.604;10.112;2023-03-01T03:48:31;10.70;;;7.80;;
3999;SDS011;2014;53.604;10.112;2023-03-01T03:51:01;15.23;;;8.33;;
3999;SDS011;2014;53.604;10.112;2023-03-01T03:53:31;8.60;;;7.80;;
3999;SDS011;2014;53.604;10.112;2023-03-01T03:55:58;10.03;;;8.23;;
3999;SDS011;2014;53.604;10.112;2023-03-01T03:58:26;11.50;;;9.07;;
3999;SDS011;2014;53.604;10.112;2023-03-01T04:00:54;10.57;;;8.23;;
3999;SDS011;2014;53.604;10.112;2023-03-01T04:03:23;9.40;;;7.40;;
3999;SDS011;2014;53.604;10.112;2023-03-01T04:05:51;10.50;;;8.13;;
3999;SDS011;2014;53.604;10.112;2023-03-01T04:08:21;11.57;;;8.60;;
3999;SDS011;2014;53.604;10.112;2023-03-01T04:10:50;13.90;;;8.70;;
3999;SDS011;2014;53.604;10.112;2023-03-01T04:13:18;9.13;;;7.47;;
3999;SDS011;2014;53.604;10.112;2023-03-01T04:15:46;25.90;;;8.00;;
3999;SDS011;2014;53.604;10.112;2023-03-01T04:18:16;8.63;;;7.57;;
3999;SDS011;2014;53.604;10.112;2023-03-01T04:20:44;12.43;;;8.80;;
3999;SDS011;2014;53.604;10.112;2023-03-01T04:23:12;9.80;;;7.30;;
3999;SDS011;2014;53.604;10.112;2023-03-01T04:25:45;16.20;;;8.47;;
3999;SDS011;2014;53.604;10.112;2023-03-01T04:28:14;10.77;;;8.47;;
3999;SDS011;2014;53.604;10.112;2023-03-01T04:30:42;12.63;;;8.20;;
3999;SDS011;2014;53.604;10.112;2023-03-01T04:33:10;12.50;;;7.40;;
3999;SDS011;2014;53.604;10.112;2023-03-01T04:35:38;7.70;;;7.00;;
3999;SDS011;2014;53.604;10.112;2023-03-01T04:38:06;8.67;;;7.73;;
3999;SDS011;2014;53.604;10.112;2023-03-01T04:40:34;12.30;;;7.30;;
3999;SDS011;2014;53.604;10.112;2023-03-01T04:43:03;12.53;;;7.97;;
3999;SDS011;2014;53.604;10.112;2023-03-01T04:45:31;19.80;;;8.20;;
3999;SDS011;2014;53.604;10.112;2023-03-01T04:48:01;13.00;;;7.60;;
3999;SDS011;2014;53.604;10.112;2023-03-01T04:50:28;10.00;;;7.60;;
3999;SDS011;2014;53.604;10.112;2023-03-01T04:52:56;8.50;;;7.70;;
3999;SDS011;2014;53.604;10.112;2023-03-01T04:55:25;8.20;;;7.20;;
3999;SDS011;2014;53.604;10.112;2023-03-01T04:57:53;7.77;;;7.13;;
3999;SDS011;2014;53.604;10.112;2023-03-01T05:00:22;13.13;;;8.20;;
3999;SDS011;2014;53.604;10.112;2023-03-01T05:02:51;9.83;;;8.17;;
3999;SDS011;2014;53.604;10.112;2023-03-01T05:05:20;7.73;;;6.97;;
3999;SDS011;2014;53.604;10.112;2023-03-01T05:07:51;7.57;;;6.77;;
3999;SDS011;2014;53.604;10.112;2023-03-01T05:10:19;11.73;;;7.30;;
3999;SDS011;2014;53.604;10.112;2023-03-01T05:12:47;11.40;;;7.13;;
3999;SDS011;2014;53.604;10.112;2023-03-01T05:15:14;9.27;;;7.33;;
3999;SDS011;2014;53.604;10.112;2023-03-01T05:17:44;9.23;;;6.90;;
3999;SDS011;2014;53.604;10.112;2023-03-01T05:20:11;13.97;;;8.67;;
3999;SDS011;2014;53.604;10.112;2023-03-01T05:22:39;8.73;;;7.87;;
3999;SDS011;2014;53.604;10.112;2023-03-01T05:25:07;11.80;;;8.40;;
3999;SDS011;2014;53.604;10.112;2023-03-01T05:27:35;10.43;;;9.33;;
3999;SDS011;2014;53.604;10.112;2023-03-01T05:30:03;11.77;;;7.70;;
3999;SDS011;2014;53.604;10.112;2023-03-01T05:32:39;8.53;;;7.63;;
3999;SDS011;2014;53.604;10.112;2023-03-01T05:35:10;11.13;;;8.23;;
3999;SDS011;2014;53.604;10.112;2023-03-01T05:37:43;12.43;;;7.77;;
3999;SDS011;2014;53.604;10.112;2023-03-01T05:40:11;8.63;;;7.73;;
3999;SDS011;2014;53.604;10.112;2023-03-01T05:42:45;9.40;;;7.43;;
3999;SDS011;2014;53.604;10.112;2023-03-01T05:45:13;10.17;;;8.13;;
3999;SDS011;2014;53.604;10.112;2023-03-01T05:47:41;10.40;;;7.53;;
3999;SDS011;2014;53.604;10.112;2023-03-01T05:50:14;13.00;;;8.27;;
3999;SDS011;2014;53.604;10.112;2023-03-01T05:52:44;8.93;;;8.13;;
3999;SDS011;2014;53.604;10.112;2023-03-01T05:55:12;14.90;;;8.50;;
3999;SDS011;2014;53.604;10.112;2023-03-01T05:57:40;9.33;;;7.57;;
3999;SDS011;2014;53.604;10.112;2023-03-01T06:00:08;8.60;;;7.57;;
3999;SDS011;2014;53.604;10.112;2023-03-01T06:02:36;8.27;;;7.43;;
3999;SDS011;2014;53.604;10.112;2023-03-01T06:05:04;12.73;;;7.90;;
3999;SDS011;2014;53.604;10.112;2023-03-01T06:07:33;15.43;;;8.83;;
3999;SDS011;2014;53.604;10.112;2023-03-01T06:10:01;14.47;;;7.63;;
3999;SDS011;2014;53.604;10.112;2023-03-01T06:12:30;8.33;;;6.97;;
3999;SDS011;2014;53.604;10.112;2023-03-01T06:14:58;8.40;;;7.60;;
3999;SDS011;2014;53.604;10.112;2023-03-01T06:17:26;14.07;;;7.53;;
3999;SDS011;2014;53.604;10.112;2023-03-01T06:19:56;10.43;;;7.17;;
3999;SDS011;2014;53.604;10.112;2023-03-01T06:22:23;9.10;;;6.70;;
3999;SDS011;2014;53.604;10.112;2023-03-01T06:24:52;7.43;;;6.67;;
3999;SDS011;2014;53.604;10.112;2023-03-01T06:27:20;8.30;;;6.57;;
3999;SDS011;2014;53.604;10.112;2023-03-01T06:29:48;10.17;;;7.60;;
3999;SDS011;2014;53.604;10.112;2023-03-01T06:32:15;11.17;;;6.77;;
3999;SDS011;2014;53.604;10.112;2023-03-01T06:34:43;8.90;;;8.10;;
3999;SDS011;2014;53.604;10.112;2023-03-01T06:37:11;12.23;;;6.93;;
3999;SDS011;2014;53.604;10.112;2023-03-01T06:39:39;11.10;;;7.20;;
3999;SDS011;2014;53.604;10.112;2023-03-01T06:42:08;15.53;;;7.10;;
3999;SDS011;2014;53.604;10.112;2023-03-01T06:44:36;11.57;;;7.87;;
3999;SDS011;2014;53.604;10.112;2023-03-01T06:47:04;6.77;;;6.33;;
3999;SDS011;2014;53.604;10.112;2023-03-01T06:49:32;5.13;;;4.67;;
3999;SDS011;2014;53.604;10.112;2023-03-01T06:52:00;6.90;;;5.30;;
3999;SDS011;2014;53.604;10.112;2023-03-01T06:54:27;8.63;;;7.00;;
3999;SDS011;2014;53.604;10.112;2023-03-01T06:56:55;13.03;;;6.60;;
3999;SDS011;2014;53.604;10.112;2023-03-01T06:59:24;6.07;;;5.57;;
3999;SDS011;2014;53.604;10.112;2023-03-01T07:01:52;10.83;;;7.47;;
3999;SDS011;2014;53.604;10.112;2023-03-01T07:04:19;15.07;;;8.97;;
3999;SDS011;2014;53.604;10.112;2023-03-01T07:06:47;9.90;;;7.00;;
3999;SDS011;2014;53.604;10.112;2023-03-01T07:09:20;7.33;;;6.13;;
3999;SDS011;2014;53.604;10.112;2023-03-01T07:11:48;13.77;;;7.30;;
3999;SDS011;2014;53.604;10.112;2023-03-01T07:14:15;8.97;;;7.67;;
3999;SDS011;2014;53.604;10.112;2023-03-01T07:16:46;7.33;;;6.37;;
3999;SDS011;2014;53.604;10.112;2023-03-01T07:19:14;9.17;;;6.93;;
3999;SDS011;2014;53.604;10.112;2023-03-01T07:21:41;7.70;;;6.97;;
3999;SDS011;2014;53.604;10.112;2023-03-01T07:24:09;7.67;;;7.03;;
3999;SDS011;2014;53.604;10.112;2023-03-01T07:26:37;7.30;;;6.20;;
3999;SDS011;2014;53.604;10.112;2023-03-01T07:29:05;7.40;;;6.17;;
3999;SDS011;2014;53.604;10.112;2023-03-01T07:31:34;9.10;;;6.60;;
3999;SDS011;2014;53.604;10.112;2023-03-01T07:34:03;7.47;;;6.77;;
3999;SDS011;2014;53.604;10.112;2023-03-01T07:36:31;7.57;;;6.77;;
3999;SDS011;2014;53.604;10.112;2023-03-01T07:38:59;8.70;;;5.60;;
3999;SDS011;2014;53.604;10.112;2023-03-01T07:41:28;5.00;;;4.77;;
3999;SDS011;2014;53.604;10.112;2023-03-01T07:43:56;10.60;;;6.77;;
3999;SDS011;2014;53.604;10.112;2023-03-01T07:46:23;7.80;;;5.47;;
3999;SDS011;2014;53.604;10.112;2023-03-01T07:48:51;7.33;;;6.50;;
3999;SDS011;2014;53.604;10.112;2023-03-01T07:51:20;6.37;;;5.10;;
3999;SDS011;2014;53.604;10.112;2023-03-01T07:53:48;7.10;;;6.50;;
3999;SDS011;2014;53.604;10.112;2023-03-01T07:56:15;8.13;;;5.67;;
3999;SDS011;2014;53.604;10.112;2023-03-01T07:58:44;7.30;;;6.67;;
3999;SDS011;2014;53.604;10.112;2023-03-01T08:01:13;6.93;;;6.20;;
3999;SDS011;2014;53.604;10.112;2023-03-01T08:03:41;7.90;;;6.97;;
3999;SDS011;2014;53.604;10.112;2023-03-01T08:06:09;8.30;;;7.60;;
3999;SDS011;2014;53.604;10.112;2023-03-01T08:08:39;8.47;;;6.80;;
3999;SDS011;2014;53.604;10.112;2023-03-01T08:11:07;9.73;;;7.83;;
3999;SDS011;2014;53.604;10.112;2023-03-01T08:13:35;9.10;;;7.13;;
3999;SDS011;2014;53.604;10.112;2023-03-01T08:16:03;7.50;;;6.90;;
3999;SDS011;2014;53.604;10.112;2023-03-01T08:18:31;13.83;;;8.07;;
3999;SDS011;2014;53.604;10.112;2023-03-01T08:21:01;9.03;;;7.63;;
3999;SDS011;2014;53.604;10.112;2023-03-01T08:23:29;8.50;;;7.70;;
3999;SDS011;2014;53.604;10.112;2023-03-01T08:26:04;11.63;;;7.70;;
3999;SDS011;2014;53.604;10.112;2023-03-01T08:28:32;9.50;;;8.50;;
3999;SDS011;2014;53.604;10.112;2023-03-01T08:31:00;9.23;;;7.47;;
3999;SDS011;2014;53.604;10.112;2023-03-01T08:33:27;9.73;;;8.70;;
3999;SDS011;2014;53.604;10.112;2023-03-01T08:36:02;12.23;;;8.97;;
3999;SDS011;2014;53.604;10.112;2023-03-01T08:38:29;10.17;;;8.63;;
3999;SDS011;2014;53.604;10.112;2023-03-01T08:40:59;11.10;;;9.07;;
3999;SDS011;2014;53.604;10.112;2023-03-01T08:43:28;12.67;;;9.67;;
3999;SDS011;2014;53.604;10.112;2023-03-01T08:45:55;11.80;;;9.27;;
3999;SDS011;2014;53.604;10.112;2023-03-01T08:48:23;10.70;;;8.60;;
3999;SDS011;2014;53.604;10.112;2023-03-01T08:50:51;9.07;;;8.17;;
3999;SDS011;2014;53.604;10.112;2023-03-01T08:53:18;14.67;;;10.73;;
3999;SDS011;2014;53.604;10.112;2023-03-01T08:55:46;11.20;;;8.60;;
3999;SDS011;2014;53.604;10.112;2023-03-01T08:58:13;9.30;;;8.50;;
3999;SDS011;2014;53.604;10.112;2023-03-01T09:00:42;12.50;;;9.47;;
3999;SDS011;2014;53.604;10.112;2023-03-01T09:03:10;10.20;;;9.20;;
3999;SDS011;2014;53.604;10.112;2023-03-01T09:05:38;11.20;;;8.67;;
3999;SDS011;2014;53.604;10.112;2023-03-01T09:08:05;8.60;;;7.80;;
3999;SDS011;2014;53.604;10.112;2023-03-01T09:10:37;10.53;;;7.97;;
3999;SDS011;2014;53.604;10.112;2023-03-01T09:13:04;10.40;;;7.93;;
3999;SDS011;2014;53.604;10.112;2023-03-01T09:15:32;11.60;;;7.97;;
3999;SDS011;2014;53.604;10.112;2023-03-01T09:18:01;9.50;;;8.70;;
3999;SDS011;2014;53.604;10.112;2023-03-01T09:20:29;10.53;;;9.10;;
3999;SDS011;2014;53.604;10.112;2023-03-01T09:22:57;8.43;;;7.70;;
3999;SDS011;2014;53.604;10.112;2023-03-01T09:25:25;9.73;;;8.80;;
3999;SDS011;2014;53.604;10.112;2023-03-01T09:27:53;9.10;;;8.20;;
3999;SDS011;2014;53.604;10.112;2023-03-01T09:30:21;12.13;;;8.70;;
3999;SDS011;2014;53.604;10.112;2023-03-01T09:32:49;12.23;;;9.73;;
3999;SDS011;2014;53.604;10.112;2023-03-01T09:35:19;11.70;;;8.57;;
3999;SDS011;2014;53.604;10.112;2023-03-01T09:37:47;9.20;;;8.20;;
3999;SDS011;2014;53.604;10.112;2023-03-01T09:40:16;10.73;;;9.63;;
3999;SDS011;2014;53.604;10.112;2023-03-01T09:42:50;9.83;;;8.93;;
3999;SDS011;2014;53.604;10.112;2023-03-01T09:45:23;11.27;;;9.33;;
3999;SDS011;2014;53.604;10.112;2023-03-01T09:47:51;16.87;;;9.37;;
3999;SDS011;2014;53.604;10.112;2023-03-01T09:50:21;10.07;;;8.60;;
3999;SDS011;2014;53.604;10.112;2023-03-01T09:52:50;9.80;;;8.80;;
3999;SDS011;2014;53.604;10.112;2023-03-01T09:55:21;10.27;;;8.90;;
3999;SDS011;2014;53.604;10.112;2023-03-01T09:57:53;10.50;;;8.70;;
3999;SDS011;2014;53.604;10.112;2023-03-01T10:00:25;12.30;;;9.23;;
3999;SDS011;2014;53.604;10.112;2023-03-01T10:02:57;9.10;;;8.30;;
3999;SDS011;2014;53.604;10.112;2023-03-01T10:05:33;7.87;;;7.17;;
3999;SDS011;2014;53.604;10.112;2023-03-01T10:08:21;8.70;;;7.47;;
3999;SDS011;2014;53.604;10.112;2023-03-01T10:10:54;8.80;;;6.80;;
3999;SDS011;2014;53.604;10.112;2023-03-01T10:13:23;12.27;;;7.67;;
3999;SDS011;2014;53.604;10.112;2023-03-01T10:15:53;7.30;;;6.60;;
3999;SDS011;2014;53.604;10.112;2023-03-01T10:18:24;7.50;;;6.77;;
3999;SDS011;2014;53.604;10.112;2023-03-01T10:20:55;9.93;;;7.70;;
3999;SDS011;2014;53.604;10.112;2023-03-01T10:23:23;7.90;;;6.60;;
3999;SDS011;2014;53.604;10.112;2023-03-01T10:26:05;7.80;;;6.73;;
3999;SDS011;2014;53.604;10.112;2023-03-01T10:28:37;7.97;;;7.27;;
3999;SDS011;2014;53.604;10.112;2023-03-01T10:31:07;9.67;;;7.17;;
3999;SDS011;2014;53.604;10.112;2023-03-01T10:33:40;8.20;;;6.80;;
3999;SDS011;2014;53.604;10.112;2023-03-01T10:36:10;9.97;;;7.30;;
3999;SDS011;2014;53.604;10.112;2023-03-01T10:38:47;9.13;;;7.10;;
3999;SDS011;2014;53.604;10.112;2023-03-01T10:41:17;10.60;;;6.40;;
3999;SDS011;2014;53.604;10.112;2023-03-01T10:43:46;7.20;;;6.50;;
3999;SDS011;2014;53.604;10.112;2023-03-01T10:46:26;7.43;;;6.73;;
3999;SDS011;2014;53.604;10.112;2023-03-01T10:49:10;9.73;;;7.00;;
3999;SDS011;2014;53.604;10.112;2023-03-01T10:51:41;9.63;;;8.50;;
3999;SDS011;2014;53.604;10.112;2023-03-01T10:54:15;8.50;;;6.90;;
3999;SDS011;2014;53.604;10.112;2023-03-01T10:56:47;9.90;;;7.13;;
3999;SDS011;2014;53.604;10.112;2023-03-01T10:59:20;10.77;;;6.83;;
3999;SDS011;2014;53.604;10.112;2023-03-01T11:02:00;10.10;;;8.77;;
3999;SDS011;2014;53.604;10.112;2023-03-01T11:04:28;12.13;;;9.40;;
3999;SDS011;2014;53.604;10.112;2023-03-01T11:07:00;8.17;;;7.10;;
3999;SDS011;2014;53.604;10.112;2023-03-01T11:09:30;14.10;;;8.50;;
3999;SDS011;2014;53.604;10.112;2023-03-01T11:12:03;8.00;;;7.23;;
3999;SDS011;2014;53.604;10.112;2023-03-01T11:14:33;11.37;;;8.30;;
3999;SDS011;2014;53.604;10.112;2023-03-01T11:17:03;8.23;;;7.47;;
3999;SDS011;2014;53.604;10.112;2023-03-01T11:19:32;9.60;;;7.50;;
3999;SDS011;2014;53.604;10.112;2023-03-01T11:22:03;14.17;;;8.03;;
3999;SDS011;2014;53.604;10.112;2023-03-01T11:24:33;7.73;;;5.77;;
3999;SDS011;2014;53.604;10.112;2023-03-01T11:27:02;5.63;;;4.97;;
3999;SDS011;2014;53.604;10.112;2023-03-01T11:29:32;8.23;;;7.30;;
3999;SDS011;2014;53.604;10.112;2023-03-01T11:32:05;7.73;;;6.40;;
3999;SDS011;2014;53.604;10.112;2023-03-01T11:34:37;7.00;;;6.50;;
3999;SDS011;2014;53.604;10.112;2023-03-01T11:37:11;10.03;;;7.50;;
3999;SDS011;2014;53.604;10.112;2023-03-01T11:39:42;6.93;;;6.27;;
3999;SDS011;2014;53.604;10.112;2023-03-01T11:42:11;7.10;;;6.03;;
3999;SDS011;2014;53.604;10.112;2023-03-01T11:44:40;7.63;;;5.80;;
3999;SDS011;2014;53.604;10.112;2023-03-01T11:47:16;9.20;;;5.30;;
3999;SDS011;2014;53.604;10.112;2023-03-01T11:49:58;4.73;;;4.30;;
3999;SDS011;2014;53.604;10.112;2023-03-01T11:52:32;7.00;;;5.20;;
3999;SDS011;2014;53.604;10.112;2023-03-01T11:57:50;6.43;;;4.07;;
3999;SDS011;2014;53.604;10.112;2023-03-01T12:00:31;6.73;;;3.83;;
3999;SDS011;2014;53.604;10.112;2023-03-01T12:03:26;3.93;;;3.57;;
3999;SDS011;2014;53.604;10.112;2023-03-01T12:08:40;4.93;;;4.53;;
3999;SDS011;2014;53.604;10.112;2023-03-01T12:11:15;4.93;;;4.43;;
3999;SDS011;2014;53.604;10.112;2023-03-01T12:13:55;5.30;;;4.80;;
3999;SDS011;2014;53.604;10.112;2023-03-01T12:16:27;6.80;;;3.90;;
3999;SDS011;2014;53.604;10.112;2023-03-01T12:19:01;5.07;;;4.67;;
3999;SDS011;2014;53.604;10.112;2023-03-01T12:21:39;5.40;;;4.90;;
3999;SDS011;2014;53.604;10.112;2023-03-01T12:24:21;5.30;;;4.80;;
3999;SDS011;2014;53.604;10.112;2023-03-01T12:26:54;4.70;;;4.40;;
3999;SDS011;2014;53.604;10.112;2023-03-01T12:29:26;4.80;;;4.40;;
3999;SDS011;2014;53.604;10.112;2023-03-01T12:34:51;6.40;;;5.03;;
3999;SDS011;2014;53.604;10.112;2023-03-01T12:37:29;5.80;;;5.10;;
3999;SDS011;2014;53.604;10.112;2023-03-01T12:40:14;5.63;;;5.20;;
3999;SDS011;2014;53.604;10.112;2023-03-01T12:42:47;4.60;;;4.27;;
3999;SDS011;2014;53.604;10.112;2023-03-01T12:45:26;5.30;;;4.90;;
3999;SDS011;2014;53.604;10.112;2023-03-01T12:48:01;4.43;;;4.13;;
3999;SDS011;2014;53.604;10.112;2023-03-01T12:50:37;6.23;;;5.00;;
3999;SDS011;2014;53.604;10.112;2023-03-01T12:53:07;5.63;;;5.20;;
3999;SDS011;2014;53.604;10.112;2023-03-01T12:55:44;5.00;;;4.60;;
3999;SDS011;2014;53.604;10.112;2023-03-01T12:58:15;6.10;;;5.60;;
3999;SDS011;2014;53.604;10.112;2023-03-01T13:00:50;5.33;;;4.77;;
3999;SDS011;2014;53.604;10.112;2023-03-01T13:03:24;12.63;;;5.63;;
3999;SDS011;2014;53.604;10.112;2023-03-01T13:05:57;9.80;;;5.90;;
3999;SDS011;2014;53.604;10.112;2023-03-01T13:08:29;4.30;;;4.00;;
3999;SDS011;2014;53.604;10.112;2023-03-01T13:11:02;4.00;;;3.70;;
3999;SDS011;2014;53.604;10.112;2023-03-01T13:13:31;6.83;;;4.20;;
3999;SDS011;2014;53.604;10.112;2023-03-01T13:16:19;3.47;;;3.13;;
3999;SDS011;2014;53.604;10.112;2023-03-01T13:18:48;4.30;;;4.00;;
3999;SDS011;2014;53.604;10.112;2023-03-01T13:21:28;5.40;;;5.00;;
3999;SDS011;2014;53.604;10.112;2023-03-01T13:23:56;4.30;;;3.63;;
3999;SDS011;2014;53.604;10.112;2023-03-01T13:26:27;5.03;;;3.73;;
3999;SDS011;2014;53.604;10.112;2023-03-01T13:28:56;3.90;;;2.90;;
3999;SDS011;2014;53.604;10.112;2023-03-01T13:34:42;4.63;;;2.90;;
3999;SDS011;2014;53.604;10.112;2023-03-01T13:37:10;2.90;;;2.80;;
3999;SDS011;2014;53.604;10.112;2023-03-01T13:39:45;2.97;;;2.77;;
3999;SDS011;2014;53.604;10.112;2023-03-01T13:42:32;3.53;;;3.23;;
3999;SDS011;2014;53.604;10.112;2023-03-01T13:45:02;5.47;;;2.93;;
3999;SDS011;2014;53.604;10.112;2023-03-01T13:47:31;3.27;;;2.83;;
3999;SDS011;2014;53.604;10.112;2023-03-01T13:50:02;3.73;;;2.40;;
3999;SDS011;2014;53.604;10.112;2023-03-01T13:52:35;4.73;;;3.83;;
3999;SDS011;2014;53.604;10.112;2023-03-01T13:55:05;5.37;;;4.87;;
3999;SDS011;2014;53.604;10.112;2023-03-01T13:57:35;3.67;;;3.37;;
3999;SDS011;2014;53.604;10.112;2023-03-01T14:00:06;2.50;;;2.40;;
3999;SDS011;2014;53.604;10.112;2023-03-01T14:02:33;2.50;;;2.17;;
3999;SDS011;2014;53.604;10.112;2023-03-01T14:05:02;3.30;;;3.10;;
3999;SDS011;2014;53.604;10.112;2023-03-01T14:07:30;3.53;;;2.80;;
3999;SDS011;2014;53.604;10.112;2023-03-01T14:09:58;3.20;;;2.90;;
3999;SDS011;2014;53.604;10.112;2023-03-01T14:12:30;2.93;;;2.80;;
3999;SDS011;2014;53.604;10.112;2023-03-01T14:15:04;3.40;;;3.20;;
3999;SDS011;2014;53.604;10.112;2023-03-01T14:17:39;3.70;;;3.20;;
3999;SDS011;2014;53.604;10.112;2023-03-01T14:20:11;2.67;;;2.57;;
3999;SDS011;2014;53.604;10.112;2023-03-01T14:22:40;6.37;;;3.47;;
3999;SDS011;2014;53.604;10.112;2023-03-01T14:25:17;3.80;;;3.60;;
3999;SDS011;2014;53.604;10.112;2023-03-01T14:27:51;4.50;;;4.27;;
3999;SDS011;2014;53.604;10.112;2023-03-01T14:30:21;4.50;;;4.23;;
3999;SDS011;2014;53.604;10.112;2023-03-01T14:32:53;11.60;;;3.37;;
3999;SDS011;2014;53.604;10.112;2023-03-01T14:35:23;3.87;;;3.60;;
3999;SDS011;2014;53.604;10.112;2023-03-01T14:37:50;4.20;;;3.90;;
3999;SDS011;2014;53.604;10.112;2023-03-01T14:40:22;3.53;;;3.33;;
3999;SDS011;2014;53.604;10.112;2023-03-01T14:42:50;4.53;;;4.23;;
3999;SDS011;2014;53.604;10.112;2023-03-01T14:45:19;4.40;;;4.10;;
3999;SDS011;2014;53.604;10.112;2023-03-01T14:47:48;4.73;;;4.23;;
3999;SDS011;2014;53.604;10.112;2023-03-01T14:50:20;4.60;;;3.97;;
3999;SDS011;2014;53.604;10.112;2023-03-01T14:52:49;5.77;;;4.20;;
3999;SDS011;2014;53.604;10.112;2023-03-01T14:55:19;4.10;;;3.90;;
3999;SDS011;2014;53.604;10.112;2023-03-01T14:57:47;3.70;;;3.50;;
3999;SDS011;2014;53.604;10.112;2023-03-01T15:00:16;3.87;;;3.60;;
3999;SDS011;2014;53.604;10.112;2023-03-01T15:02:45;3.40;;;3.20;;
3999;SDS011;2014;53.604;10.112;2023-03-01T15:05:16;2.87;;;2.77;;
3999;SDS011;2014;53.604;10.112;2023-03-01T15:07:45;3.80;;;3.50;;
3999;SDS011;2014;53.604;10.112;2023-03-01T15:10:16;2.57;;;2.47;;
3999;SDS011;2014;53.604;10.112;2023-03-01T15:12:45;3.37;;;3.17;;
3999;SDS011;2014;53.604;10.112;2023-03-01T15:15:19;2.77;;;2.60;;
3999;SDS011;2014;53.604;10.112;2023-03-01T15:17:51;2.40;;;1.83;;
3999;SDS011;2014;53.604;10.112;2023-03-01T15:20:24;2.97;;;2.77;;
3999;SDS011;2014;53.604;10.112;2023-03-01T15:22:54;2.93;;;2.83;;